Time;durP1;ratioP1;P1;durP2;ratioP2;P2;SDS_P1;SDS_P2;PMS_P1;PMS_P2;Temp;Humidity;BMP_temperature;BMP_pressure;BME280_temperature;BME280_humidity;BME280_pressure;Samples;Min_cycle;Max_cycle;Signal;HPM_P1;HPM_P2
2021/12/28 00:01:29;;;;;;;2.40;2.20;;;0.40;99.90;;;;;;5029142;28;20962;-86
2021/12/28 00:03:55;;;;;;;1.57;1.47;;;0.40;99.90;;;;;;5031780;28;20453;-87
2021/12/28 00:06:21;;;;;;;1.60;1.50;;;0.40;99.90;;;;;;5033325;28;20464;-86
2021/12/28 00:09:18;;;;;;;1.10;1.00;;;0.40;99.90;;;;;;5048599;28;20291;-86
2021/12/28 00:11:44;;;;;;;0.83;0.83;;;0.40;99.90;;;;;;5033463;28;20490;-86
2021/12/28 00:14:15;;;;;;;1.77;1.67;;;0.40;99.90;;;;;;5034187;28;20438;-86
2021/12/28 00:23:02;;;;;;;3.03;2.93;;;0.40;99.90;;;;;;5020573;28;20527;-86
2021/12/28 00:25:27;;;;;;;0.93;0.90;;;0.50;99.90;;;;;;5038294;28;20440;-85
2021/12/28 00:27:53;;;;;;;1.67;1.57;;;0.50;99.90;;;;;;5031767;28;20446;-85
2021/12/28 00:30:20;;;;;;;0.80;0.80;;;0.50;99.90;;;;;;5039750;28;20274;-85
2021/12/28 00:32:52;;;;;;;0.87;0.87;;;0.50;99.90;;;;;;5039484;28;20269;-85
2021/12/28 00:35:40;;;;;;;1.97;1.87;;;0.50;99.90;;;;;;5041170;28;20445;-85
2021/12/28 00:38:09;;;;;;;4.10;1.40;;;0.50;99.90;;;;;;5036409;28;20451;-85
2021/12/28 00:40:35;;;;;;;1.10;1.00;;;0.50;99.90;;;;;;5038195;28;20452;-85
2021/12/28 00:43:02;;;;;;;1.63;1.53;;;0.50;99.90;;;;;;5034838;28;20538;-85
2021/12/28 00:45:28;;;;;;;1.10;1.00;;;0.50;99.90;;;;;;5041049;28;20447;-85
2021/12/28 00:47:56;;;;;;;1.67;1.57;;;0.60;99.90;;;;;;5067440;28;20537;-85
2021/12/28 00:50:23;;;;;;;1.20;1.10;;;0.60;99.90;;;;;;5036673;28;20282;-84
2021/12/28 00:52:49;;;;;;;1.70;1.57;;;0.60;99.90;;;;;;5032842;28;20438;-84
2021/12/28 00:55:45;;;;;;;2.07;1.97;;;0.60;99.90;;;;;;5033948;28;20929;-85
2021/12/28 00:58:10;;;;;;;1.00;0.90;;;0.60;99.90;;;;;;5032096;28;20444;-85
2021/12/28 01:01:19;;;;;;;1.53;1.43;;;0.60;99.90;;;;;;5053506;28;20440;-84
2021/12/28 01:03:43;;;;;;;1.10;1.00;;;0.60;99.90;;;;;;5039349;28;20202;-85
2021/12/28 01:06:09;;;;;;;7.70;2.43;;;0.50;99.90;;;;;;5031224;28;20434;-85
2021/12/28 01:08:35;;;;;;;3.20;3.07;;;0.60;99.90;;;;;;5033022;28;20274;-84
2021/12/28 01:11:01;;;;;;;1.50;1.40;;;0.60;99.90;;;;;;5030877;28;20599;-84
2021/12/28 01:13:27;;;;;;;1.00;0.90;;;0.60;99.90;;;;;;5035878;28;20245;-84
2021/12/28 01:16:08;;;;;;;1.73;1.60;;;0.60;99.90;;;;;;5035440;28;20967;-85
2021/12/28 01:18:34;;;;;;;2.63;2.43;;;0.60;99.90;;;;;;5038850;28;20441;-84
2021/12/28 01:20:59;;;;;;;1.63;1.53;;;0.60;99.90;;;;;;5032506;28;21007;-84
2021/12/28 01:26:48;;;;;;;1.83;1.73;;;0.60;99.90;;;;;;5028281;28;20195;-84
2021/12/28 01:29:14;;;;;;;1.10;1.00;;;0.70;99.90;;;;;;5051913;28;20437;-84
2021/12/28 01:31:39;;;;;;;1.17;1.07;;;0.60;99.90;;;;;;5051109;28;20472;-85
2021/12/28 01:34:07;;;;;;;1.10;1.00;;;0.60;99.90;;;;;;5048116;28;20464;-84
2021/12/28 01:36:33;;;;;;;1.00;0.90;;;0.60;99.90;;;;;;5039003;28;20217;-82
2021/12/28 01:39:00;;;;;;;1.70;1.60;;;0.70;99.90;;;;;;5045321;28;20465;-84
2021/12/28 01:41:25;;;;;;;2.30;2.20;;;0.70;99.90;;;;;;5036436;28;20477;-84
2021/12/28 01:44:17;;;;;;;3.27;1.43;;;0.70;99.90;;;;;;5043244;28;20479;-84
2021/12/28 01:46:58;;;;;;;1.10;1.00;;;0.70;99.90;;;;;;5037666;28;20270;-84
2021/12/28 01:49:44;;;;;;;0.83;0.80;;;0.60;99.90;;;;;;5039921;28;20434;-84
2021/12/28 01:52:11;;;;;;;2.30;2.20;;;0.60;99.90;;;;;;5030561;28;20449;-83
2021/12/28 01:54:55;;;;;;;1.63;1.53;;;0.70;99.90;;;;;;5032267;28;20453;-83
2021/12/28 01:57:21;;;;;;;3.70;3.50;;;0.60;99.90;;;;;;5042267;28;20429;-83
2021/12/28 01:59:51;;;;;;;1.23;1.13;;;;;;;;;;5034126;28;20450;-83
2021/12/28 02:02:16;;;;;;;4.73;1.50;;;0.60;99.90;;;;;;5035212;28;20601;-84
2021/12/28 02:04:50;;;;;;;2.03;1.87;;;0.70;99.90;;;;;;5037437;28;20438;-84
2021/12/28 02:07:42;;;;;;;;;;;;;;;;;;;;;
2021/12/28 02:10:14;;;;;;;0.80;0.80;;;0.60;99.90;;;;;;5031316;28;20446;-84
2021/12/28 02:12:49;;;;;;;1.70;1.60;;;0.70;99.90;;;;;;5048088;28;20491;-84
2021/12/28 02:15:59;;;;;;;1.73;1.63;;;;;;;;;;5038423;28;20490;-83
2021/12/28 02:18:34;;;;;;;1.63;1.53;;;0.60;99.90;;;;;;5032912;28;20438;-83
2021/12/28 02:21:03;;;;;;;2.07;1.97;;;0.70;99.90;;;;;;5030529;28;20433;-83
2021/12/28 02:23:28;;;;;;;3.33;2.50;;;0.70;99.90;;;;;;5030831;28;20482;-83
2021/12/28 02:25:54;;;;;;;1.83;1.73;;;0.70;99.90;;;;;;5039785;28;20964;-83
2021/12/28 02:28:29;;;;;;;1.43;1.33;;;0.70;99.90;;;;;;5039540;28;20191;-83
2021/12/28 02:31:05;;;;;;;4.10;1.73;;;0.70;99.90;;;;;;5045311;28;20458;-83
2021/12/28 02:33:31;;;;;;;1.57;1.47;;;0.70;99.90;;;;;;5047306;28;21013;-83
2021/12/28 02:36:20;;;;;;;0.80;0.77;;;0.70;99.90;;;;;;5034036;28;20454;-83
2021/12/28 02:38:47;;;;;;;1.40;1.30;;;0.70;99.90;;;;;;5032752;28;20438;-83
2021/12/28 02:41:23;;;;;;;1.00;0.90;;;0.70;99.90;;;;;;5034356;28;20438;-83
2021/12/28 02:43:49;;;;;;;0.80;0.77;;;0.70;99.90;;;;;;5038788;28;20453;-83
2021/12/28 02:46:16;;;;;;;1.50;1.40;;;0.70;99.90;;;;;;5045183;28;20430;-84
2021/12/28 02:48:55;;;;;;;;;;;;;;;;;;;;;
2021/12/28 02:51:28;;;;;;;1.57;1.47;;;0.70;99.90;;;;;;5043683;28;20812;-84
2021/12/28 02:53:53;;;;;;;3.40;3.20;;;0.70;99.90;;;;;;5031438;28;20490;-83
2021/12/28 02:56:47;;;;;;;0.90;0.90;;;0.70;99.90;;;;;;5029504;28;20442;-83
2021/12/28 02:59:30;;;;;;;1.20;1.10;;;0.70;99.90;;;;;;5064305;28;20585;-83
2021/12/28 03:01:55;;;;;;;1.20;1.10;;;0.70;99.90;;;;;;5033655;28;20470;-83
2021/12/28 03:04:23;;;;;;;2.17;1.67;;;0.70;99.90;;;;;;5031937;28;20496;-83
2021/12/28 03:06:49;;;;;;;1.30;1.20;;;0.70;99.90;;;;;;5030205;28;20197;-83
2021/12/28 03:09:19;;;;;;;1.67;1.60;;;0.70;99.90;;;;;;5033402;28;20521;-83
2021/12/28 03:11:45;;;;;;;1.60;1.50;;;0.60;99.90;;;;;;5030779;28;20180;-83
2021/12/28 03:14:23;;;;;;;1.10;1.00;;;0.70;99.90;;;;;;5039244;28;20444;-81
2021/12/28 03:17:29;;;;;;;0.90;0.87;;;0.60;99.90;;;;;;5030819;28;20269;-83
2021/12/28 03:19:54;;;;;;;0.93;0.90;;;0.60;99.90;;;;;;5035009;28;20821;-83
2021/12/28 03:25:41;;;;;;;1.63;1.40;;;0.60;99.90;;;;;;5041275;28;20286;-83
2021/12/28 03:28:07;;;;;;;3.07;2.77;;;0.60;99.90;;;;;;5025380;28;20520;-83
2021/12/28 03:30:33;;;;;;;2.70;2.53;;;0.60;99.90;;;;;;5039024;28;20516;-83
2021/12/28 03:32:59;;;;;;;2.27;2.07;;;0.60;99.90;;;;;;5036432;28;20277;-83
2021/12/28 03:35:46;;;;;;;1.00;0.90;;;0.60;99.90;;;;;;5036416;28;20188;-83
2021/12/28 03:38:11;;;;;;;1.53;1.43;;;0.60;99.90;;;;;;5034764;28;20437;-83
2021/12/28 03:40:37;;;;;;;1.40;1.30;;;0.60;99.90;;;;;;5050248;28;20483;-82
2021/12/28 03:43:06;;;;;;;2.03;1.93;;;0.60;99.90;;;;;;5033199;28;20219;-82
2021/12/28 03:46:04;;;;;;;3.17;2.97;;;0.60;99.90;;;;;;5039094;28;20444;-83
2021/12/28 03:49:03;;;;;;;0.97;0.90;;;0.60;99.90;;;;;;5037016;28;20521;-83
2021/12/28 03:51:28;;;;;;;1.10;1.00;;;0.50;99.90;;;;;;5038560;28;20441;-82
2021/12/28 03:53:54;;;;;;;1.43;1.33;;;0.50;99.90;;;;;;5035923;28;20463;-82
2021/12/28 03:56:22;;;;;;;1.20;1.10;;;0.50;99.90;;;;;;5030717;28;20666;-82
2021/12/28 03:58:48;;;;;;;1.30;1.20;;;0.50;99.90;;;;;;5037464;28;20190;-82
2021/12/28 04:01:17;;;;;;;2.40;2.13;;;0.50;99.90;;;;;;5038050;28;20437;-82
2021/12/28 04:04:03;;;;;;;3.13;1.37;;;0.50;99.90;;;;;;5031539;28;20448;-82
2021/12/28 04:06:32;;;;;;;1.80;1.70;;;0.50;99.90;;;;;;5064045;28;20467;-83
2021/12/28 04:09:11;;;;;;;5.33;1.53;;;0.50;99.90;;;;;;5039783;28;20949;-82
2021/12/28 04:11:51;;;;;;;1.10;1.00;;;0.50;99.90;;;;;;5049627;28;20482;-82
2021/12/28 04:17:15;;;;;;;1.13;1.03;;;0.50;99.90;;;;;;5040107;28;20937;-82
2021/12/28 04:20:43;;;;;;;1.00;0.90;;;0.50;99.90;;;;;;5031433;28;20778;-82
2021/12/28 04:23:08;;;;;;;2.30;1.63;;;0.50;99.90;;;;;;5006325;28;20853;-82
2021/12/28 04:25:45;;;;;;;1.83;1.73;;;0.50;99.90;;;;;;5013334;28;20438;-83
2021/12/28 04:28:14;;;;;;;1.20;1.10;;;0.60;99.90;;;;;;5016569;28;20557;-82
2021/12/28 04:30:40;;;;;;;2.07;1.97;;;0.50;99.90;;;;;;5015815;28;20462;-82
2021/12/28 04:33:48;;;;;;;1.10;1.00;;;0.60;99.90;;;;;;5023726;28;20449;-82
2021/12/28 04:36:20;;;;;;;1.47;1.37;;;0.50;99.90;;;;;;5035303;28;20179;-82
2021/12/28 04:39:13;;;;;;;1.27;1.17;;;0.60;99.90;;;;;;5028517;28;20442;-82
2021/12/28 04:41:59;;;;;;;0.93;0.87;;;0.60;99.90;;;;;;5036941;28;20913;-82
2021/12/28 04:44:25;;;;;;;4.17;3.10;;;0.60;99.90;;;;;;5035943;28;20444;-82
2021/12/28 04:47:12;;;;;;;1.20;1.10;;;0.60;99.90;;;;;;5034582;28;20434;-82
2021/12/28 04:49:38;;;;;;;2.70;2.50;;;0.60;99.90;;;;;;5024215;28;20938;-83
2021/12/28 04:52:05;;;;;;;4.60;3.00;;;0.50;99.90;;;;;;5032401;28;20462;-82
2021/12/28 04:54:53;;;;;;;0.80;0.80;;;0.50;99.90;;;;;;5038245;28;20184;-83
2021/12/28 04:57:40;;;;;;;1.40;1.30;;;0.60;99.90;;;;;;5039684;28;20470;-82
2021/12/28 05:00:17;;;;;;;1.53;1.43;;;0.60;99.90;;;;;;5034680;28;20495;-82
2021/12/28 05:02:51;;;;;;;0.97;0.90;;;0.60;99.90;;;;;;5038223;28;20479;-82
2021/12/28 05:05:19;;;;;;;3.17;2.97;;;0.60;99.90;;;;;;5036990;28;20446;-82
2021/12/28 05:07:55;;;;;;;1.07;0.97;;;0.60;99.90;;;;;;5040535;28;20798;-82
2021/12/28 05:14:41;;;;;;;1.77;1.67;;;0.60;99.90;;;;;;4969694;28;20906;-82
2021/12/28 05:17:58;;;;;;;1.20;1.10;;;0.60;99.90;;;;;;4979190;28;20613;-83
2021/12/28 05:20:24;;;;;;;2.80;2.50;;;0.60;99.90;;;;;;5010225;28;20439;-82
2021/12/28 05:22:50;;;;;;;2.80;2.70;;;0.60;99.90;;;;;;5014199;28;20931;-82
2021/12/28 05:25:16;;;;;;;1.10;1.00;;;0.60;99.90;;;;;;5028986;28;20283;-82
2021/12/28 05:27:41;;;;;;;2.00;1.90;;;0.60;99.90;;;;;;5032659;28;20479;-82
2021/12/28 05:30:37;;;;;;;1.70;1.60;;;0.60;99.90;;;;;;5045799;28;21269;-82
2021/12/28 05:33:03;;;;;;;2.33;2.23;;;0.60;99.90;;;;;;5035006;28;20532;-82
2021/12/28 05:38:17;;;;;;;1.20;1.10;;;0.60;99.90;;;;;;5039705;28;20475;-82
2021/12/28 05:40:42;;;;;;;3.00;2.80;;;0.60;99.90;;;;;;5052301;28;20465;-82
2021/12/28 05:43:08;;;;;;;3.37;3.17;;;0.60;99.90;;;;;;5049733;28;20215;-83
2021/12/28 05:45:34;;;;;;;1.33;1.23;;;0.60;99.90;;;;;;5036986;28;20180;-82
2021/12/28 05:48:27;;;;;;;3.30;3.03;;;0.60;99.90;;;;;;5049614;28;20191;-82
2021/12/28 05:53:49;;;;;;;2.53;2.37;;;0.60;99.90;;;;;;5030761;28;20533;-82
2021/12/28 05:57:00;;;;;;;0.83;0.83;;;0.60;99.90;;;;;;5040647;28;20529;-82
2021/12/28 05:59:38;;;;;;;4.40;4.07;;;0.60;99.90;;;;;;5030100;28;20207;-82
2021/12/28 06:02:14;;;;;;;2.60;1.80;;;0.60;99.90;;;;;;5045317;28;20470;-83
2021/12/28 06:07:34;;;;;;;1.10;1.00;;;0.60;99.90;;;;;;5026810;28;20502;-82
2021/12/28 06:10:00;;;;;;;2.10;2.00;;;0.60;99.90;;;;;;5025294;28;20446;-82
2021/12/28 06:12:25;;;;;;;1.10;1.00;;;0.60;99.90;;;;;;5036279;28;21273;-82
2021/12/28 06:14:52;;;;;;;1.20;1.10;;;0.70;99.90;;;;;;5034559;28;20286;-82
2021/12/28 06:17:18;;;;;;;2.07;1.97;;;0.60;99.90;;;;;;5028278;28;20179;-82
2021/12/28 06:19:46;;;;;;;1.73;1.63;;;0.60;99.90;;;;;;5058787;28;20445;-81
2021/12/28 06:22:22;;;;;;;1.30;1.20;;;0.60;99.90;;;;;;5041678;28;20516;-82
2021/12/28 06:25:00;;;;;;;2.73;1.73;;;0.60;99.90;;;;;;5030365;28;20462;-81
2021/12/28 06:30:53;;;;;;;1.63;1.53;;;0.60;99.90;;;;;;5038362;28;20438;-81
2021/12/28 06:36:28;;;;;;;1.30;1.20;;;0.60;99.90;;;;;;5030615;28;20441;-82
2021/12/28 06:38:54;;;;;;;2.40;2.20;;;0.60;99.90;;;;;;5031686;28;20448;-82
2021/12/28 06:41:23;;;;;;;1.20;1.10;;;0.60;99.90;;;;;;5064768;28;20437;-82
2021/12/28 06:43:57;;;;;;;1.07;0.97;;;0.60;99.90;;;;;;5042295;28;20195;-82
2021/12/28 06:46:29;;;;;;;1.30;1.20;;;0.60;99.90;;;;;;5039952;28;20433;-81
2021/12/28 06:49:29;;;;;;;6.50;4.40;;;0.60;99.90;;;;;;5042671;28;20449;-82
2021/12/28 06:51:55;;;;;;;0.80;0.80;;;0.60;99.90;;;;;;5035793;28;20445;-81
2021/12/28 06:54:20;;;;;;;1.93;1.83;;;0.70;99.90;;;;;;5030653;28;21049;-82
2021/12/28 06:56:55;;;;;;;4.60;1.83;;;0.60;99.90;;;;;;5035190;28;20186;-82
2021/12/28 06:59:21;;;;;;;3.43;2.70;;;0.70;99.90;;;;;;5042136;28;20182;-82
2021/12/28 07:04:41;;;;;;;1.00;0.93;;;0.70;99.90;;;;;;5030242;28;20194;-82
2021/12/28 07:07:07;;;;;;;1.30;1.20;;;0.70;99.90;;;;;;5036783;28;20481;-82
2021/12/28 07:09:33;;;;;;;1.87;1.77;;;0.70;99.90;;;;;;5031486;28;20924;-81
2021/12/28 07:11:59;;;;;;;1.50;1.33;;;0.70;99.90;;;;;;5032725;28;20667;-82
2021/12/28 07:14:50;;;;;;;1.40;1.30;;;0.80;99.90;;;;;;5040951;28;20986;-82
2021/12/28 07:17:22;;;;;;;1.03;0.93;;;0.80;99.90;;;;;;5039342;28;20543;-82
2021/12/28 07:19:51;;;;;;;3.37;1.93;;;0.80;99.90;;;;;;5068550;28;20461;-82
2021/12/28 07:25:40;;;;;;;1.37;1.23;;;0.80;99.90;;;;;;5036466;28;20871;-82
2021/12/28 07:28:44;;;;;;;4.17;1.23;;;0.90;99.90;;;;;;5031297;28;20827;-82
2021/12/28 07:31:19;;;;;;;0.93;0.90;;;0.80;99.90;;;;;;5019948;28;20481;-82
2021/12/28 07:33:44;;;;;;;1.50;1.40;;;1.00;99.90;;;;;;5023522;28;20468;-82
2021/12/28 07:36:10;;;;;;;0.90;0.90;;;1.00;99.90;;;;;;5036476;28;20980;-83
2021/12/28 07:38:36;;;;;;;4.30;2.70;;;0.90;99.90;;;;;;5037435;28;20191;-82
2021/12/28 07:41:09;;;;;;;0.90;0.90;;;0.90;99.90;;;;;;5038775;28;20222;-83
2021/12/28 07:43:35;;;;;;;7.63;2.60;;;1.00;99.90;;;;;;5031764;28;20746;-87
2021/12/28 07:46:24;;;;;;;1.00;0.90;;;0.90;99.90;;;;;;5036378;28;20462;-87
2021/12/28 07:52:10;;;;;;;1.20;1.00;;;0.90;99.90;;;;;;5042141;28;20467;-88
2021/12/28 07:54:41;;;;;;;2.37;2.27;;;0.90;99.90;;;;;;5024679;28;20783;-88
2021/12/28 07:57:09;;;;;;;1.87;1.77;;;0.90;99.90;;;;;;5026571;28;21084;-88
2021/12/28 08:00:07;;;;;;;1.10;1.00;;;1.00;99.90;;;;;;5031005;28;20449;-88
2021/12/28 08:03:31;;;;;;;1.00;0.90;;;1.00;99.90;;;;;;5025971;28;20524;-87
2021/12/28 08:06:08;;;;;;;2.97;2.83;;;0.90;99.90;;;;;;5017507;28;21045;-88
2021/12/28 08:12:36;;;;;;;1.60;1.40;;;0.90;99.90;;;;;;5011997;28;20542;-88
2021/12/28 08:15:11;;;;;;;2.17;2.07;;;0.90;99.90;;;;;;5027062;28;20468;-88
2021/12/28 08:17:57;;;;;;;1.70;1.60;;;0.90;99.90;;;;;;5016688;28;20504;-88
2021/12/28 08:20:23;;;;;;;1.37;1.27;;;0.90;99.90;;;;;;5023265;28;20441;-88
2021/12/28 08:23:00;;;;;;;1.13;1.03;;;0.90;99.90;;;;;;5028972;28;20494;-88
2021/12/28 08:25:26;;;;;;;1.00;0.90;;;0.90;99.90;;;;;;5022729;28;20183;-88
2021/12/28 08:27:52;;;;;;;0.83;0.83;;;0.90;99.90;;;;;;5035818;28;20451;-89
2021/12/28 08:30:19;;;;;;;1.83;1.73;;;0.90;99.90;;;;;;5027432;28;20434;-88
2021/12/28 08:32:46;;;;;;;4.13;3.83;;;0.90;99.90;;;;;;5023016;28;20487;-88
2021/12/28 08:35:31;;;;;;;0.90;0.90;;;0.90;99.90;;;;;;5047564;28;20442;-87
2021/12/28 08:37:57;;;;;;;2.40;2.30;;;1.00;99.90;;;;;;5026022;28;20472;-88
2021/12/28 08:40:24;;;;;;;8.83;2.93;;;1.00;99.90;;;;;;5058201;28;20816;-89
2021/12/28 08:43:21;;;;;;;2.90;2.70;;;0.90;99.90;;;;;;5036199;28;20492;-88
2021/12/28 08:45:46;;;;;;;1.10;1.00;;;0.90;99.90;;;;;;5028875;28;20512;-88
2021/12/28 08:48:13;;;;;;;1.93;1.83;;;0.90;99.90;;;;;;5068152;28;20830;-89
2021/12/28 08:50:40;;;;;;;0.83;0.83;;;0.90;99.90;;;;;;5034761;28;20219;-89
2021/12/28 08:53:06;;;;;;;1.57;1.47;;;0.90;99.90;;;;;;5033934;28;20434;-89
2021/12/28 08:55:32;;;;;;;4.03;3.73;;;0.90;99.90;;;;;;5052738;28;20441;-88
2021/12/28 08:58:04;;;;;;;0.90;0.90;;;1.00;99.90;;;;;;5051464;28;20429;-89
2021/12/28 09:00:42;;;;;;;4.20;2.60;;;0.90;99.90;;;;;;5032389;28;20434;-88
2021/12/28 09:03:11;;;;;;;1.30;1.20;;;0.90;99.90;;;;;;5030625;28;20516;-88
2021/12/28 09:05:42;;;;;;;1.70;1.60;;;0.90;99.90;;;;;;5031304;28;20430;-89
2021/12/28 09:08:37;;;;;;;0.80;0.80;;;1.00;99.90;;;;;;5026495;28;20426;-89
2021/12/28 09:11:32;;;;;;;1.27;1.17;;;1.00;99.90;;;;;;5028949;28;20429;-91
2021/12/28 09:13:58;;;;;;;1.87;1.77;;;1.00;99.90;;;;;;5052581;28;20445;-90
2021/12/28 09:16:35;;;;;;;1.30;1.20;;;1.00;99.90;;;;;;5036086;28;20434;-89
2021/12/28 09:19:43;;;;;;;0.93;0.90;;;1.00;99.90;;;;;;5051505;28;20270;-90
2021/12/28 09:26:12;;;;;;;2.57;2.47;;;1.10;99.90;;;;;;5045006;28;20420;-90
2021/12/28 09:28:37;;;;;;;1.40;1.20;;;1.10;99.90;;;;;;5046055;28;20424;-90
2021/12/28 09:31:29;;;;;;;2.10;1.33;;;1.10;99.90;;;;;;5049561;28;20794;-90
2021/12/28 09:34:24;;;;;;;0.90;0.90;;;1.10;99.90;;;;;;5038702;28;20426;-90
2021/12/28 09:36:50;;;;;;;0.90;0.90;;;1.10;99.90;;;;;;5019619;28;20499;-89
2021/12/28 09:39:22;;;;;;;5.00;3.37;;;1.10;99.90;;;;;;5041486;28;21024;-89
2021/12/28 09:41:53;;;;;;;0.80;0.73;;;1.10;99.90;;;;;;5041613;28;20667;-89
2021/12/28 09:44:21;;;;;;;1.10;1.00;;;1.10;99.90;;;;;;5048721;28;20424;-89
2021/12/28 09:46:47;;;;;;;11.30;3.43;;;1.10;99.90;;;;;;5051816;28;20429;-90
2021/12/28 09:49:15;;;;;;;1.00;0.90;;;1.10;99.90;;;;;;5050711;28;20520;-89
2021/12/28 09:54:51;;;;;;;0.83;0.80;;;1.00;99.90;;;;;;5045005;28;20564;-90
2021/12/28 10:01:20;;;;;;;0.90;0.90;;;1.10;99.90;;;;;;5056499;28;20425;-89
2021/12/28 10:03:53;;;;;;;1.00;0.90;;;1.10;99.90;;;;;;4931795;29;20565;-89
2021/12/28 10:06:35;;;;;;;1.30;1.20;;;1.10;99.90;;;;;;4923108;29;20979;-90
2021/12/28 10:09:21;;;;;;;1.30;1.20;;;1.10;99.90;;;;;;4903935;29;20443;-90
2021/12/28 10:11:49;;;;;;;2.00;1.90;;;1.10;99.90;;;;;;4904585;29;20476;-89
2021/12/28 10:18:01;;;;;;;1.50;1.40;;;1.30;99.90;;;;;;5014251;28;20441;-90
2021/12/28 10:20:30;;;;;;;2.10;2.00;;;1.30;99.90;;;;;;5022507;28;20443;-89
2021/12/28 10:23:02;;;;;;;2.03;1.93;;;1.30;99.90;;;;;;5025018;28;20488;-89
2021/12/28 10:25:37;;;;;;;9.90;3.83;;;1.30;99.90;;;;;;5036876;28;20449;-90
2021/12/28 10:28:12;;;;;;;2.90;2.80;;;1.30;99.90;;;;;;5026205;28;20439;-89
2021/12/28 10:30:45;;;;;;;1.40;1.30;;;1.30;99.90;;;;;;4986684;28;20481;-89
2021/12/28 10:36:56;;;;;;;1.10;1.00;;;1.30;99.90;;;;;;5016715;28;20435;-89
2021/12/28 10:40:27;;;;;;;3.33;1.63;;;1.40;99.90;;;;;;5030589;28;20442;-90
2021/12/28 10:42:59;;;;;;;0.80;0.77;;;1.40;99.90;;;;;;5028727;28;20495;-90
2021/12/28 10:46:04;;;;;;;1.27;1.17;;;1.30;99.90;;;;;;5031603;28;20553;-90
2021/12/28 10:48:38;;;;;;;2.23;2.03;;;1.30;99.90;;;;;;5030992;28;20446;-91
2021/12/28 10:51:26;;;;;;;1.10;1.00;;;1.30;99.90;;;;;;5026459;28;20434;-89
2021/12/28 10:57:36;;;;;;;4.27;3.93;;;1.30;99.90;;;;;;5031961;28;21015;-90
2021/12/28 11:00:42;;;;;;;1.20;1.10;;;1.30;99.90;;;;;;5031446;28;20480;-88
2021/12/28 11:03:38;;;;;;;7.70;4.47;;;1.30;99.90;;;;;;5027940;28;20957;-89
2021/12/28 11:06:21;;;;;;;1.07;0.97;;;1.30;99.90;;;;;;5041526;28;20449;-90
2021/12/28 11:08:50;;;;;;;3.73;3.43;;;1.40;99.90;;;;;;5051129;28;20433;-90
2021/12/28 11:11:28;;;;;;;2.03;1.93;;;1.40;99.90;;;;;;5030891;28;20442;-90
2021/12/28 11:14:31;;;;;;;2.03;1.93;;;1.40;99.90;;;;;;5043632;28;20425;-88
2021/12/28 11:17:14;;;;;;;0.80;0.80;;;1.40;99.90;;;;;;5045744;28;20437;-90
2021/12/28 11:19:40;;;;;;;1.70;1.60;;;1.40;99.90;;;;;;5029455;28;20560;-90
2021/12/28 11:22:14;;;;;;;6.00;3.50;;;1.50;99.90;;;;;;5030099;28;21068;-90
2021/12/28 11:25:19;;;;;;;2.67;2.43;;;1.60;99.90;;;;;;5030479;28;20238;-90
2021/12/28 11:28:31;;;;;;;;;;;;;;;;;;;;;
2021/12/28 11:31:34;;;;;;;3.70;3.50;;;1.50;99.90;;;;;;5038870;28;20430;-89
2021/12/28 11:34:21;;;;;;;2.60;1.60;;;1.50;99.90;;;;;;5039452;28;20425;-90
2021/12/28 11:37:44;;;;;;;;;;;;;;;;;;;;;
2021/12/28 11:40:11;;;;;;;1.40;1.30;;;1.60;99.90;;;;;;5030003;28;20441;-89
2021/12/28 11:42:38;;;;;;;1.57;1.47;;;1.70;99.90;;;;;;5034424;28;20481;-87
2021/12/28 11:45:04;;;;;;;1.10;1.00;;;2.00;99.90;;;;;;5028344;28;20441;-87
2021/12/28 11:47:29;;;;;;;1.40;1.27;;;2.20;99.90;;;;;;5037738;28;20496;-89
2021/12/28 11:49:58;;;;;;;3.33;3.20;;;2.20;99.90;;;;;;5030443;28;20444;-87
2021/12/28 11:52:23;;;;;;;3.83;3.20;;;2.10;99.90;;;;;;5029010;28;20188;-89
2021/12/28 11:54:57;;;;;;;3.83;3.30;;;2.00;99.90;;;;;;5029488;28;20507;-91
2021/12/28 11:57:26;;;;;;;2.77;2.53;;;1.80;99.90;;;;;;5032662;28;20191;-88
2021/12/28 12:00:24;;;;;;;;;;;;;;;;;;;;;
2021/12/28 12:03:32;;;;;;;1.30;1.20;;;1.60;99.90;;;;;;5027289;28;20484;-89
2021/12/28 12:05:57;;;;;;;0.87;0.83;;;1.60;99.90;;;;;;5027724;28;21210;-88
2021/12/28 12:08:31;;;;;;;1.20;1.10;;;1.60;99.90;;;;;;5029191;28;20481;-89
2021/12/28 12:11:05;;;;;;;3.10;3.00;;;1.50;99.90;;;;;;5028858;28;20184;-89
2021/12/28 12:13:31;;;;;;;10.13;5.43;;;1.60;99.90;;;;;;5040928;28;20523;-90
2021/12/28 12:16:15;;;;;;;1.20;1.10;;;1.60;99.90;;;;;;5031422;28;20461;-90
2021/12/28 12:18:46;;;;;;;1.43;1.33;;;1.60;99.90;;;;;;5032147;28;20186;-90
2021/12/28 12:21:18;;;;;;;1.50;1.40;;;1.60;99.90;;;;;;5034865;28;20438;-90
2021/12/28 12:27:34;;;;;;;0.80;0.80;;;1.70;99.90;;;;;;5791600;23;21712;-88
2021/12/28 12:30:18;;;;;;;3.53;3.23;;;1.60;99.90;;;;;;4923492;29;21171;-94
2021/12/28 12:36:00;;;;;;;1.63;1.53;;;1.50;99.90;;;;;;4923491;28;20426;-90
2021/12/28 12:38:26;;;;;;;1.23;1.13;;;1.60;99.90;;;;;;4932838;29;20447;-86
2021/12/28 12:41:08;;;;;;;2.27;2.07;;;1.60;99.90;;;;;;4921998;29;20453;-85
2021/12/28 12:43:40;;;;;;;0.90;0.90;;;1.60;99.90;;;;;;4915688;29;20238;-85
2021/12/28 12:46:10;;;;;;;2.37;2.17;;;1.50;99.90;;;;;;4934162;28;20462;-85
2021/12/28 12:48:39;;;;;;;3.10;2.90;;;1.50;99.90;;;;;;4928135;29;20535;-84
2021/12/28 12:51:22;;;;;;;1.00;0.90;;;1.50;99.90;;;;;;4918720;29;20919;-85
2021/12/28 12:53:53;;;;;;;0.80;0.80;;;1.50;99.90;;;;;;4928689;29;20474;-84
2021/12/28 12:59:53;;;;;;;0.90;0.90;;;1.60;99.90;;;;;;4916390;29;20458;-84
2021/12/28 13:02:26;;;;;;;1.20;1.10;;;1.60;99.90;;;;;;4926909;29;20507;-85
2021/12/28 13:04:55;;;;;;;0.80;0.70;;;1.60;99.90;;;;;;4927034;29;20458;-85
2021/12/28 13:07:25;;;;;;;0.90;0.83;;;1.60;99.90;;;;;;4934946;28;20475;-85
2021/12/28 13:10:14;;;;;;;1.40;1.30;;;1.50;99.90;;;;;;4918161;29;20471;-85
2021/12/28 13:12:42;;;;;;;1.70;1.60;;;1.60;99.90;;;;;;4913373;29;20483;-86
2021/12/28 13:15:10;;;;;;;1.47;1.40;;;1.50;99.90;;;;;;4923184;29;20423;-85
2021/12/28 13:17:48;;;;;;;2.93;2.77;;;1.50;99.90;;;;;;4940707;28;20606;-85
2021/12/28 13:20:31;;;;;;;0.80;0.73;;;1.50;99.90;;;;;;4917590;29;20438;-86
2021/12/28 13:23:08;;;;;;;0.97;0.90;;;1.50;99.90;;;;;;4926277;29;20494;-86
2021/12/28 13:25:40;;;;;;;2.10;1.90;;;1.50;99.90;;;;;;4927772;29;20449;-84
2021/12/28 13:28:07;;;;;;;1.27;1.17;;;1.60;99.90;;;;;;4932134;29;20523;-85
2021/12/28 13:30:37;;;;;;;1.20;1.10;;;1.60;99.90;;;;;;4943198;28;20430;-85
2021/12/28 13:33:05;;;;;;;1.17;1.07;;;1.60;99.90;;;;;;4942470;28;20438;-86
2021/12/28 13:35:33;;;;;;;1.40;1.30;;;1.60;99.90;;;;;;4945390;28;20450;-85
2021/12/28 13:38:02;;;;;;;3.17;3.07;;;1.60;99.90;;;;;;4943974;28;20450;-86
2021/12/28 13:40:38;;;;;;;1.67;1.57;;;1.60;99.90;;;;;;4933515;28;20453;-86
2021/12/28 13:43:25;;;;;;;1.10;1.00;;;1.60;99.90;;;;;;4947822;28;21046;-88
2021/12/28 13:45:58;;;;;;;1.40;1.30;;;1.60;99.90;;;;;;4959874;28;20433;-89
2021/12/28 13:48:26;;;;;;;1.10;1.00;;;1.60;99.90;;;;;;4959381;28;21533;-88
2021/12/28 13:50:57;;;;;;;1.63;1.53;;;1.60;99.90;;;;;;4956436;28;20448;-88
2021/12/28 13:53:35;;;;;;;2.23;2.03;;;1.60;99.90;;;;;;4960679;28;20444;-89
2021/12/28 13:56:06;;;;;;;8.10;4.20;;;1.60;99.90;;;;;;4959507;28;20437;-93
2021/12/28 13:58:36;;;;;;;0.83;0.80;;;1.60;99.90;;;;;;4960119;28;20449;-84
2021/12/28 14:01:21;;;;;;;0.80;0.80;;;1.60;99.90;;;;;;4940872;28;21231;-85
2021/12/28 14:03:57;;;;;;;2.90;2.70;;;1.60;99.90;;;;;;4949957;28;20553;-80
2021/12/28 14:06:23;;;;;;;5.03;3.53;;;1.60;99.90;;;;;;4955200;28;20512;-86
2021/12/28 14:08:49;;;;;;;3.80;3.50;;;1.60;99.90;;;;;;4956970;28;20431;-84
2021/12/28 14:11:29;;;;;;;2.83;2.73;;;1.60;99.90;;;;;;4958940;28;20449;-88
2021/12/28 14:13:55;;;;;;;1.10;1.00;;;1.60;99.90;;;;;;4958573;28;20269;-82
2021/12/28 14:16:20;;;;;;;1.73;1.63;;;1.60;99.90;;;;;;4960713;28;21248;-82
2021/12/28 14:18:48;;;;;;;1.87;1.77;;;1.60;99.90;;;;;;4944974;28;20193;-85
2021/12/28 14:21:26;;;;;;;1.13;1.03;;;1.60;99.90;;;;;;4942413;28;20182;-82
2021/12/28 14:24:02;;;;;;;2.90;2.70;;;1.70;99.90;;;;;;4947773;28;20537;-82
2021/12/28 14:26:31;;;;;;;1.47;1.37;;;1.60;99.90;;;;;;4942852;28;20439;-83
2021/12/28 14:29:04;;;;;;;1.37;1.27;;;1.50;99.90;;;;;;4952516;28;20501;-84
2021/12/28 14:31:40;;;;;;;3.30;3.10;;;1.50;99.90;;;;;;4944090;28;20438;-83
2021/12/28 14:34:06;;;;;;;2.17;2.07;;;1.50;99.90;;;;;;4942156;28;20556;-83
2021/12/28 14:36:45;;;;;;;2.53;2.37;;;1.50;99.90;;;;;;4956383;28;20483;-82
2021/12/28 14:39:11;;;;;;;1.57;1.47;;;1.40;99.90;;;;;;4954010;28;20429;-92
2021/12/28 14:41:38;;;;;;;1.00;0.90;;;1.40;99.90;;;;;;4940393;28;20575;-85
2021/12/28 14:44:24;;;;;;;3.13;2.93;;;1.40;99.90;;;;;;4955208;28;20178;-83
2021/12/28 14:46:51;;;;;;;1.43;1.33;;;1.40;99.90;;;;;;4939106;28;20453;-86
2021/12/28 14:49:28;;;;;;;1.10;1.00;;;1.40;99.90;;;;;;4930816;28;20798;-85
2021/12/28 14:52:08;;;;;;;1.00;0.90;;;1.40;99.90;;;;;;4934291;28;20446;-86
2021/12/28 14:54:34;;;;;;;2.20;2.10;;;1.40;99.90;;;;;;4922084;29;20563;-86
2021/12/28 14:57:00;;;;;;;1.57;1.47;;;1.30;99.90;;;;;;4931025;28;20538;-86
2021/12/28 14:59:26;;;;;;;1.00;0.90;;;1.30;99.90;;;;;;4936584;28;20193;-86
2021/12/28 15:01:58;;;;;;;2.80;1.70;;;1.30;99.90;;;;;;4959993;28;20194;-86
2021/12/28 15:04:29;;;;;;;3.47;3.20;;;1.30;99.90;;;;;;4951782;28;20799;-86